»·PEaware :: N132KT KFCS-KWLW

N132KT :: KFCS-KWLW

FLIGHT INFORMATION

Flight Status: Arrived
Operator: Privately registered:
United States
More flights under this callsign
Pilot: Keith S. (1)
Aircraft: BEECH AIRCRAFT BARON
(BE58)
More flights by this aircraft type
Origin: KFCS Butts AAF
United States
Destination: KWLW Willows-Glenn Co
United States
More flights between these airports :: More routes between these airports
Route: +
File this flight plan on PilotEdge
Remarks:
Altitude:
(Current/Filed)
10,500ft
Speed:
(Current/Filed)
165kts
Departed: 04-Jun-19 05:33 AM
Arrived: 04-Jun-19 10:35 AM
Distance/Time
Traveled:
813nm/5:01
Distance/Time
To Go:
Arrived

Flight Plot

Page will automatically refresh every two minutes.

Flight plan parsing failed; only flown route is shown


Map Options




Map Legend


Flown Route
Filed Route
Departure Airport
Arrival Airport
Navaid (VOR, NDB)
Fix

Horizontal Profiles

Position Reports

Time Latitude Longitude Heading Altitude Ground
Speed
04-Jun-19 05:28 38.676339 -104.757140 227 5842ft 0kts
04-Jun-19 05:29 38.676853 -104.758197 319 5842ft 8kts
04-Jun-19 05:30 38.678726 -104.757944 50 5842ft 0kts
04-Jun-19 05:31 38.682097 -104.760876 317 5842ft 34kts
04-Jun-19 05:32 38.668030 -104.744214 137 6014ft 130kts
04-Jun-19 05:33 38.644958 -104.760313 279 6748ft 131kts
04-Jun-19 05:34 38.651211 -104.806248 279 7627ft 131kts
04-Jun-19 05:35 38.645331 -104.850651 247 8445ft 130kts
04-Jun-19 05:36 38.630720 -104.892519 247 9179ft 127kts
04-Jun-19 05:38 38.608194 -104.976931 273 10466ft 128kts
04-Jun-19 05:39 38.614100 -105.025110 275 10557ft 144kts
04-Jun-19 05:40 38.620712 -105.077114 275 10554ft 150kts
04-Jun-19 05:41 38.625383 -105.130102 261 10559ft 149kts
04-Jun-19 05:42 38.621109 -105.184411 260 10323ft 162kts
04-Jun-19 05:43 38.616125 -105.239945 260 10312ft 154kts
04-Jun-19 05:44 38.611121 -105.293917 259 10314ft 151kts
04-Jun-19 05:45 38.606126 -105.347330 259 10314ft 151kts
04-Jun-19 05:46 38.601138 -105.400392 259 10347ft 149kts
04-Jun-19 05:47 38.596249 -105.452419 259 10520ft 140kts
04-Jun-19 05:48 38.591768 -105.499664 258 10908ft 127kts
04-Jun-19 05:49 38.587571 -105.543577 258 11278ft 123kts
04-Jun-19 05:50 38.583363 -105.587438 258 11712ft 127kts
04-Jun-19 05:51 38.579006 -105.632910 257 12242ft 129kts
04-Jun-19 05:52 38.574416 -105.680231 257 12509ft 147kts
04-Jun-19 05:53 38.569090 -105.735534 257 12497ft 162kts
04-Jun-19 05:54 38.563473 -105.793410 257 12490ft 162kts
04-Jun-19 05:55 38.557945 -105.849790 257 12493ft 158kts
04-Jun-19 05:56 38.552452 -105.905594 257 12493ft 157kts
04-Jun-19 05:57 38.547023 -105.960485 257 12494ft 157kts
04-Jun-19 05:58 38.541471 -106.016356 257 12494ft 157kts
04-Jun-19 05:59 38.536341 -106.071790 258 12494ft 157kts
04-Jun-19 06:00 38.531725 -106.127301 259 12494ft 157kts
04-Jun-19 06:01 38.527066 -106.183067 259 12494ft 157kts
04-Jun-19 06:02 38.522392 -106.238684 259 12494ft 157kts
04-Jun-19 06:03 38.517703 -106.294151 259 12494ft 157kts
04-Jun-19 06:04 38.512954 -106.350029 259 12491ft 158kts
04-Jun-19 06:05 38.508175 -106.405938 259 12479ft 158kts
04-Jun-19 06:06 38.503367 -106.461863 259 12468ft 158kts
04-Jun-19 06:07 38.498554 -106.517529 259 12457ft 158kts
04-Jun-19 06:09 38.493809 -106.572245 258 12609ft 149kts
04-Jun-19 06:10 38.489070 -106.626247 258 12614ft 154kts
04-Jun-19 06:11 38.484247 -106.681054 258 12613ft 156kts
04-Jun-19 06:12 38.479348 -106.736347 258 12613ft 156kts
04-Jun-19 06:13 38.474420 -106.791782 258 12613ft 156kts
04-Jun-19 06:14 38.469455 -106.847219 258 12612ft 158kts
04-Jun-19 06:15 38.464398 -106.903380 259 12613ft 160kts
04-Jun-19 06:16 38.459236 -106.960470 260 12613ft 163kts
04-Jun-19 06:17 38.453975 -107.018408 261 12613ft 164kts
04-Jun-19 06:18 38.452339 -107.070035 268 12613ft 165kts
04-Jun-19 06:19 38.452573 -107.129028 269 12613ft 165kts
04-Jun-19 06:20 38.452824 -107.182088 269 12613ft 165kts
04-Jun-19 06:21 38.453085 -107.241095 269 12613ft 165kts
04-Jun-19 06:22 38.453317 -107.300001 269 12607ft 166kts
04-Jun-19 06:23 38.453521 -107.359131 269 12578ft 167kts
04-Jun-19 06:24 38.453697 -107.418682 269 12548ft 167kts
04-Jun-19 06:25 38.453843 -107.478286 269 12519ft 167kts
04-Jun-19 06:26 38.453958 -107.537856 269 12494ft 167kts
04-Jun-19 06:27 38.454042 -107.597174 269 12494ft 166kts
04-Jun-19 06:28 38.454096 -107.655851 268 12494ft 166kts
04-Jun-19 06:29 38.454120 -107.715071 268 12493ft 166kts
04-Jun-19 06:29 38.454118 -107.764260 268 12493ft 166kts
04-Jun-19 06:31 38.454081 -107.833273 268 12493ft 166kts
04-Jun-19 06:32 38.454017 -107.892124 268 12493ft 166kts
04-Jun-19 06:32 38.453941 -107.941231 268 12493ft 166kts
04-Jun-19 06:34 38.453800 -108.010182 268 12493ft 166kts
04-Jun-19 06:34 38.453675 -108.059337 268 12492ft 166kts
04-Jun-19 06:36 38.453466 -108.128156 268 12490ft 166kts
04-Jun-19 06:36 38.453291 -108.177573 268 12489ft 166kts
04-Jun-19 06:37 38.453053 -108.236678 268 12488ft 166kts
04-Jun-19 06:38 38.452786 -108.295703 268 12490ft 166kts
04-Jun-19 06:39 38.452490 -108.354808 268 12494ft 166kts
04-Jun-19 06:40 38.452164 -108.413889 268 12498ft 166kts
04-Jun-19 06:41 38.451808 -108.473075 268 12502ft 166kts
04-Jun-19 06:42 38.451422 -108.532197 268 12503ft 166kts
04-Jun-19 06:43 38.451005 -108.591580 268 12503ft 166kts
04-Jun-19 06:44 38.450567 -108.649843 268 12503ft 167kts
04-Jun-19 06:45 38.450281 -108.685873 267 12502ft 166kts
04-Jun-19 06:48 38.448589 -108.876165 267 12502ft 166kts
04-Jun-19 06:49 38.448000 -108.935319 267 12503ft 166kts
04-Jun-19 06:50 38.447383 -108.994556 267 12499ft 166kts
04-Jun-19 06:51 38.446734 -109.053799 267 12490ft 166kts
04-Jun-19 06:52 38.446055 -109.112906 267 12482ft 165kts
04-Jun-19 06:53 38.439624 -109.170341 251 12477ft 163kts
04-Jun-19 06:54 38.425656 -109.225794 251 12475ft 163kts
04-Jun-19 06:55 38.432056 -109.279868 295 12453ft 165kts
04-Jun-19 06:56 38.441430 -109.336951 272 12425ft 165kts
04-Jun-19 06:57 38.442148 -109.395801 268 12403ft 165kts
04-Jun-19 06:58 38.441525 -109.454407 268 12384ft 164kts
04-Jun-19 06:59 38.440685 -109.512899 268 12384ft 164kts
04-Jun-19 07:00 38.439802 -109.570495 268 12440ft 162kts
04-Jun-19 07:01 38.438885 -109.628451 268 12439ft 163kts
04-Jun-19 07:02 38.437941 -109.686261 267 12439ft 163kts
04-Jun-19 07:03 38.436955 -109.744249 267 12444ft 163kts
04-Jun-19 07:04 38.435947 -109.802824 267 12448ft 165kts
04-Jun-19 07:05 38.434906 -109.861355 267 12448ft 165kts
04-Jun-19 07:06 38.433827 -109.920204 267 12448ft 165kts
04-Jun-19 07:07 38.432720 -109.979034 267 12448ft 165kts
04-Jun-19 07:08 38.431583 -110.037888 267 12448ft 165kts
04-Jun-19 07:09 38.430415 -110.096771 267 12448ft 165kts
04-Jun-19 07:10 38.429219 -110.155595 267 12448ft 165kts
04-Jun-19 07:11 38.427994 -110.214404 267 12457ft 165kts
04-Jun-19 07:12 38.426740 -110.273150 267 12468ft 165kts
04-Jun-19 07:13 38.425460 -110.331823 267 12479ft 165kts
04-Jun-19 07:14 38.424153 -110.390324 267 12482ft 165kts
04-Jun-19 07:15 38.422986 -110.441567 267 12485ft 165kts
04-Jun-19 07:16 38.421754 -110.494612 267 12466ft 166kts
04-Jun-19 07:17 38.420356 -110.553519 267 12466ft 165kts
04-Jun-19 07:18 38.418930 -110.612414 267 12466ft 165kts
04-Jun-19 07:19 38.417489 -110.670724 267 12466ft 165kts
04-Jun-19 07:20 38.419907 -110.729372 275 12466ft 166kts
04-Jun-19 07:21 38.425698 -110.787997 276 12466ft 166kts
04-Jun-19 07:22 38.431559 -110.846526 276 12466ft 166kts
04-Jun-19 07:23 38.437407 -110.905115 276 12466ft 166kts
04-Jun-19 07:24 38.443226 -110.963720 276 12466ft 166kts
04-Jun-19 07:25 38.449048 -111.022654 277 12466ft 167kts
04-Jun-19 07:26 38.454843 -111.081551 277 12466ft 167kts
04-Jun-19 07:27 38.460628 -111.140634 277 12466ft 167kts
04-Jun-19 07:28 38.466365 -111.199512 277 12466ft 167kts
04-Jun-19 07:29 38.472073 -111.258470 277 12466ft 167kts
04-Jun-19 07:30 38.477745 -111.317372 277 12466ft 167kts
04-Jun-19 07:31 38.483406 -111.376477 277 12469ft 167kts
04-Jun-19 07:32 38.489006 -111.435269 277 12485ft 166kts
04-Jun-19 07:33 38.494600 -111.494292 277 12498ft 167kts
04-Jun-19 07:34 38.500182 -111.553539 277 12509ft 167kts
04-Jun-19 07:35 38.505755 -111.613001 277 12519ft 167kts
04-Jun-19 07:36 38.511103 -111.670392 277 12537ft 167kts
04-Jun-19 07:37 38.516578 -111.729472 277 12560ft 167kts
04-Jun-19 07:38 38.522010 -111.788408 277 12585ft 166kts
04-Jun-19 07:39 38.527403 -111.847245 277 12611ft 166kts
04-Jun-19 07:40 38.532789 -111.906330 277 12613ft 167kts
04-Jun-19 07:41 38.538158 -111.965566 277 12613ft 168kts
04-Jun-19 07:42 38.543515 -112.025022 277 12613ft 168kts
04-Jun-19 07:43 38.548839 -112.084449 277 12612ft 168kts
04-Jun-19 07:44 38.554161 -112.144189 277 12585ft 169kts
04-Jun-19 07:45 38.559460 -112.204043 277 12556ft 169kts
04-Jun-19 07:46 38.564763 -112.264285 277 12525ft 169kts
04-Jun-19 07:47 38.570002 -112.324167 277 12496ft 169kts
04-Jun-19 07:48 38.575220 -112.384177 277 12494ft 168kts
04-Jun-19 07:49 38.580360 -112.443626 277 12494ft 168kts
04-Jun-19 07:50 38.585477 -112.503179 277 12494ft 168kts
04-Jun-19 07:51 38.590570 -112.562802 277 12494ft 168kts
04-Jun-19 07:52 38.595610 -112.622178 277 12494ft 168kts
04-Jun-19 07:53 38.600584 -112.681112 276 12493ft 168kts
04-Jun-19 07:54 38.605579 -112.740676 276 12493ft 168kts
04-Jun-19 07:55 38.610593 -112.800803 276 12410ft 170kts
04-Jun-19 07:56 38.615544 -112.860789 276 12410ft 168kts
04-Jun-19 07:57 38.616009 -112.866430 277 12410ft 168kts
04-Jun-19 07:58 38.624348 -112.968097 278 12411ft 169kts
04-Jun-19 07:59 38.629253 -113.028397 278 12411ft 170kts
04-Jun-19 08:00 38.634179 -113.089141 278 12411ft 171kts
04-Jun-19 08:01 38.639080 -113.150114 278 12411ft 171kts
04-Jun-19 08:02 38.643931 -113.210907 278 12411ft 171kts
04-Jun-19 08:03 38.648770 -113.271987 278 12412ft 171kts
04-Jun-19 08:04 38.653539 -113.332569 278 12411ft 171kts
04-Jun-19 08:05 38.658292 -113.393344 278 12411ft 171kts
04-Jun-19 08:06 38.662999 -113.453940 278 12412ft 171kts
04-Jun-19 08:07 38.667687 -113.514716 278 12412ft 171kts
04-Jun-19 08:08 38.672341 -113.575464 278 12412ft 171kts
04-Jun-19 08:09 38.676956 -113.636114 278 12412ft 171kts
04-Jun-19 08:10 38.681496 -113.696179 278 12410ft 171kts
04-Jun-19 08:11 38.686038 -113.756708 278 12411ft 171kts
04-Jun-19 08:12 38.690561 -113.817426 278 12424ft 170kts
04-Jun-19 08:13 38.695020 -113.877690 278 12442ft 170kts
04-Jun-19 08:14 38.699454 -113.938045 278 12461ft 170kts
04-Jun-19 08:15 38.703867 -113.998536 278 12482ft 170kts
04-Jun-19 08:16 38.708237 -114.058867 278 12488ft 170kts
04-Jun-19 08:17 38.712601 -114.119560 278 12491ft 170kts
04-Jun-19 08:18 38.716170 -114.169536 278 12493ft 171kts
04-Jun-19 08:25 38.745673 -114.594910 278 12494ft 171kts
04-Jun-19 08:26 38.749718 -114.655025 277 12484ft 171kts
04-Jun-19 08:27 38.753793 -114.716084 277 12484ft 171kts
04-Jun-19 08:29 38.757824 -114.776977 277 12484ft 171kts
04-Jun-19 08:30 38.761832 -114.837990 277 12484ft 171kts
04-Jun-19 08:31 38.765820 -114.899196 277 12484ft 171kts
04-Jun-19 08:32 38.769750 -114.960014 277 12484ft 171kts
04-Jun-19 08:33 38.773651 -115.021045 278 12484ft 171kts
04-Jun-19 08:34 38.777510 -115.081775 278 12484ft 170kts
04-Jun-19 08:35 38.781320 -115.142194 278 12484ft 169kts
04-Jun-19 08:36 38.785060 -115.201993 279 12484ft 167kts
04-Jun-19 08:37 38.788757 -115.261485 279 12483ft 166kts
04-Jun-19 08:38 38.792403 -115.320723 279 12484ft 166kts
04-Jun-19 08:39 38.796015 -115.379924 279 12484ft 166kts
04-Jun-19 08:40 38.799606 -115.439296 279 12484ft 166kts
04-Jun-19 08:41 38.803159 -115.498541 279 12484ft 166kts
04-Jun-19 08:42 38.806684 -115.557829 279 12484ft 166kts
04-Jun-19 08:43 38.810188 -115.617262 279 12484ft 166kts
04-Jun-19 08:44 38.813637 -115.676282 278 12483ft 166kts
04-Jun-19 08:44 38.816507 -115.725778 278 12483ft 166kts
04-Jun-19 08:46 38.820487 -115.795031 278 12483ft 166kts
04-Jun-19 08:47 38.823867 -115.854435 278 12483ft 166kts
04-Jun-19 08:47 38.826656 -115.903852 278 12483ft 166kts
04-Jun-19 08:49 38.830527 -115.973073 278 12481ft 166kts
04-Jun-19 08:50 38.833828 -116.032674 278 12479ft 167kts
04-Jun-19 08:50 38.836544 -116.082153 278 12477ft 167kts
04-Jun-19 08:51 38.839793 -116.141840 278 12475ft 167kts
04-Jun-19 08:53 38.843540 -116.211408 278 12475ft 167kts
04-Jun-19 08:53 38.846191 -116.261082 278 12476ft 167kts
04-Jun-19 08:54 38.849347 -116.320758 278 12476ft 167kts
04-Jun-19 08:55 38.852466 -116.380293 278 12477ft 167kts
04-Jun-19 08:56 38.855555 -116.439854 278 12478ft 167kts
04-Jun-19 08:57 38.858622 -116.499583 278 12479ft 167kts
04-Jun-19 08:58 38.861656 -116.559254 278 12479ft 167kts
04-Jun-19 08:59 38.864563 -116.617721 278 12694ft 156kts
04-Jun-19 09:00 38.867186 -116.670524 278 13085ft 146kts
04-Jun-19 09:01 38.869774 -116.722617 278 13385ft 146kts
04-Jun-19 09:02 38.872337 -116.774906 279 13668ft 146kts
04-Jun-19 09:03 38.874877 -116.827261 279 13941ft 146kts
04-Jun-19 09:04 38.877390 -116.879563 279 14199ft 147kts
04-Jun-19 09:05 38.879891 -116.931988 279 14443ft 147kts
04-Jun-19 09:06 38.882518 -116.986717 278 14429ft 163kts
04-Jun-19 09:07 38.885481 -117.049461 277 13938ft 185kts
04-Jun-19 09:08 38.888366 -117.113397 277 13896ft 173kts
04-Jun-19 09:09 38.891136 -117.174272 277 13898ft 169kts
04-Jun-19 09:10 38.893829 -117.234357 277 13976ft 163kts
04-Jun-19 09:11 38.896474 -117.293411 277 13982ft 166kts
04-Jun-19 09:12 38.899092 -117.352838 277 13982ft 166kts
04-Jun-19 09:13 38.901821 -117.414880 277 13652ft 180kts
04-Jun-19 09:14 38.904583 -117.479479 276 13339ft 181kts
04-Jun-19 09:15 38.907353 -117.544577 276 12925ft 187kts
04-Jun-19 09:16 38.910128 -117.611529 276 12565ft 180kts
04-Jun-19 09:17 38.912694 -117.673905 276 12553ft 171kts
04-Jun-19 09:18 38.915180 -117.734718 276 12540ft 168kts
04-Jun-19 09:19 38.917604 -117.794910 276 12527ft 167kts
04-Jun-19 09:20 38.919981 -117.854754 276 12515ft 167kts
04-Jun-19 09:21 38.922323 -117.914507 275 12509ft 167kts
04-Jun-19 09:22 38.926556 -117.973690 284 12503ft 165kts
04-Jun-19 09:23 38.935559 -118.031649 284 12494ft 165kts
04-Jun-19 09:24 38.944674 -118.089664 284 12484ft 164kts
04-Jun-19 09:25 38.953689 -118.147123 283 12481ft 163kts
04-Jun-19 09:26 38.962690 -118.204665 283 12479ft 163kts
04-Jun-19 09:27 38.971614 -118.261917 283 12477ft 163kts
04-Jun-19 09:28 38.980521 -118.319247 283 12475ft 162kts
04-Jun-19 09:29 38.989377 -118.376447 282 12473ft 162kts
04-Jun-19 09:30 38.998215 -118.433726 282 12471ft 162kts
04-Jun-19 09:31 39.006995 -118.490831 282 12469ft 162kts
04-Jun-19 09:32 39.015772 -118.548101 282 12467ft 162kts
04-Jun-19 09:33 39.024510 -118.605326 282 12465ft 162kts
04-Jun-19 09:34 39.033084 -118.661658 281 12464ft 163kts
04-Jun-19 09:35 39.041827 -118.719282 281 12462ft 163kts
04-Jun-19 09:36 39.050504 -118.776712 281 12462ft 163kts
04-Jun-19 09:37 39.059210 -118.834422 280 12462ft 163kts
04-Jun-19 09:38 39.067834 -118.891867 280 12463ft 164kts
04-Jun-19 09:39 39.076536 -118.950125 280 12463ft 165kts
04-Jun-19 09:40 39.085265 -119.008771 280 12463ft 167kts
04-Jun-19 09:41 39.094040 -119.067861 280 12468ft 167kts
04-Jun-19 09:42 39.102552 -119.125368 280 12482ft 167kts
04-Jun-19 09:43 39.111263 -119.184447 280 12497ft 167kts
04-Jun-19 09:44 39.119947 -119.243571 280 12511ft 167kts
04-Jun-19 09:45 39.128583 -119.302587 280 12521ft 167kts
04-Jun-19 09:46 39.137220 -119.361821 280 12519ft 168kts
04-Jun-19 09:47 39.145815 -119.420993 280 12517ft 168kts
04-Jun-19 09:48 39.154416 -119.480432 280 12516ft 168kts
04-Jun-19 09:49 39.162965 -119.539725 280 12515ft 168kts
04-Jun-19 09:50 39.171496 -119.599119 280 12513ft 168kts
04-Jun-19 09:51 39.179247 -119.653283 279 12512ft 168kts
04-Jun-19 09:52 39.188010 -119.714756 279 12510ft 168kts
04-Jun-19 09:53 39.196465 -119.774286 279 12511ft 168kts
04-Jun-19 09:54 39.204822 -119.833351 279 12533ft 167kts
04-Jun-19 09:55 39.213167 -119.892559 279 12555ft 166kts
04-Jun-19 09:56 39.221426 -119.951378 279 12578ft 166kts
04-Jun-19 09:57 39.229597 -120.009792 279 12590ft 167kts
04-Jun-19 09:59 39.244671 -120.118137 279 12526ft 167kts
04-Jun-19 10:00 39.252884 -120.177504 279 12526ft 167kts
04-Jun-19 10:01 39.261031 -120.236618 279 12526ft 167kts
04-Jun-19 10:02 39.269212 -120.296208 279 12514ft 168kts
04-Jun-19 10:03 39.277364 -120.355828 279 12498ft 168kts
04-Jun-19 10:04 39.285526 -120.415467 278 12486ft 167kts
04-Jun-19 10:05 39.293522 -120.474652 278 12473ft 166kts
04-Jun-19 10:06 39.301462 -120.533466 278 12471ft 165kts
04-Jun-19 10:07 39.309347 -120.592057 278 12471ft 165kts
04-Jun-19 10:08 39.317204 -120.650669 278 12471ft 165kts
04-Jun-19 10:09 39.325036 -120.709332 278 12472ft 165kts
04-Jun-19 10:10 39.332851 -120.768094 278 12451ft 166kts
04-Jun-19 10:11 39.340684 -120.827229 278 12419ft 166kts
04-Jun-19 10:12 39.348485 -120.886358 278 12387ft 166kts
04-Jun-19 10:13 39.356783 -120.949472 278 11825ft 186kts
04-Jun-19 10:14 39.365589 -121.016779 278 11230ft 190kts
04-Jun-19 10:15 39.374355 -121.084142 279 10673ft 189kts
04-Jun-19 10:16 39.383025 -121.151059 279 10130ft 188kts
04-Jun-19 10:17 39.391624 -121.217708 279 9599ft 187kts
04-Jun-19 10:18 39.400170 -121.284203 279 9080ft 186kts
04-Jun-19 10:19 39.408622 -121.350348 279 8572ft 185kts
04-Jun-19 10:20 39.416988 -121.416141 279 8075ft 185kts
04-Jun-19 10:21 39.425331 -121.482109 279 7585ft 184kts
04-Jun-19 10:22 39.433612 -121.547850 279 7105ft 184kts
04-Jun-19 10:23 39.441854 -121.613519 280 6633ft 184kts
04-Jun-19 10:24 39.449967 -121.678480 279 6175ft 184kts
04-Jun-19 10:25 39.458297 -121.745525 279 5489ft 192kts
04-Jun-19 10:26 39.466483 -121.811782 279 4746ft 183kts
04-Jun-19 10:27 39.474530 -121.877189 279 3993ft 182kts
04-Jun-19 10:28 39.482504 -121.942319 279 3256ft 181kts
04-Jun-19 10:29 39.490364 -122.006830 279 2540ft 180kts
04-Jun-19 10:30 39.498150 -122.071041 278 1837ft 180kts
04-Jun-19 10:31 39.505879 -122.134167 280 1689ft 179kts
04-Jun-19 10:32 39.525754 -122.192901 295 1417ft 155kts
04-Jun-19 10:33 39.521374 -122.219871 178 148ft 99kts
04-Jun-19 10:34 39.517036 -122.216839 87 138ft 0kts
04-Jun-19 10:35 39.517036 -122.216839 87 138ft 0kts
04-Jun-19 10:36 39.517036 -122.216839 87 138ft 0kts
04-Jun-19 10:37 39.517036 -122.216839 87 138ft 0kts
04-Jun-19 10:38 39.517036 -122.216839 87 138ft 0kts
04-Jun-19 10:39 39.517036 -122.216839 87 138ft 0kts
04-Jun-19 10:40 39.517036 -122.216839 87 138ft 0kts
04-Jun-19 10:41 39.517036 -122.216839 87 138ft 0kts
04-Jun-19 10:42 39.517036 -122.216839 87 138ft 0kts

Navigation Log

Ident Type
Flight plan parsing failed, navigation log unavailable